createdAt,value
2023-04-03T00:08:14.098Z,85.58
2023-04-03T00:24:04.359Z,84.16
2023-04-03T00:39:52.179Z,83.58
2023-04-03T00:47:27.422Z,83.26
2023-04-03T00:55:15.371Z,83.48
2023-04-03T01:03:06.097Z,83.43
2023-04-03T01:11:07.051Z,83.02
2023-04-03T01:26:34.209Z,83.79
2023-04-03T01:34:36.129Z,83.89
2023-04-03T01:42:28.248Z,84.00
2023-04-03T01:57:57.552Z,86.98
2023-04-03T02:06:14.456Z,88.91
2023-04-03T02:13:52.269Z,90.05
2023-04-03T02:21:55.418Z,90.67
2023-04-03T02:37:20.887Z,91.58
2023-04-03T02:45:03.359Z,91.51
2023-04-03T02:52:42.800Z,92.02
2023-04-03T03:00:35.241Z,94.41
2023-04-03T03:16:42.870Z,98.76
2023-04-03T03:32:12.368Z,100.00
2023-04-03T03:39:52.132Z,100.00
2023-04-03T03:55:56.333Z,100.00
2023-04-03T04:03:39.276Z,100.00
2023-04-03T04:11:19.680Z,100.00
2023-04-03T04:19:58.473Z,100.00
2023-04-03T04:28:09.529Z,100.00
2023-04-03T04:36:00.999Z,100.00
2023-04-03T04:43:49.249Z,100.00
2023-04-03T04:52:07.418Z,100.00
2023-04-03T05:00:13.528Z,100.00
2023-04-03T05:07:58.559Z,100.00
2023-04-03T05:16:09.835Z,100.00
2023-04-03T05:23:52.466Z,100.00
2023-04-03T05:31:47.677Z,100.00
2023-04-03T05:40:12.995Z,100.00
2023-04-03T05:56:42.454Z,100.00
2023-04-03T06:21:14.476Z,99.89
2023-04-03T06:28:54.122Z,96.92
2023-04-03T06:36:50.031Z,92.42
2023-04-03T06:45:00.302Z,87.24
2023-04-03T06:53:04.686Z,80.93
2023-04-03T07:16:50.577Z,74.76
2023-04-03T07:32:45.110Z,71.00
2023-04-03T07:41:13.565Z,67.94
2023-04-03T07:58:00.860Z,60.74
2023-04-03T08:06:15.904Z,61.04
2023-04-03T08:14:11.244Z,60.16
2023-04-03T08:31:03.981Z,57.65
2023-04-03T08:38:55.743Z,57.43
2023-04-03T08:55:17.700Z,59.46
2023-04-03T09:11:31.541Z,53.21
2023-04-03T09:19:57.119Z,55.81
2023-04-03T09:36:01.924Z,50.15
2023-04-03T09:44:18.208Z,48.90
2023-04-03T09:52:41.799Z,48.04
2023-04-03T10:00:44.582Z,49.08
2023-04-03T10:08:35.547Z,48.88
2023-04-03T10:16:19.855Z,49.08
2023-04-03T10:24:00.349Z,49.20
2023-04-03T10:31:47.145Z,48.24
2023-04-03T10:39:31.861Z,48.42
2023-04-03T10:47:18.782Z,50.07
2023-04-03T10:55:03.793Z,48.53
2023-04-03T11:02:41.695Z,47.19
2023-04-03T11:10:25.302Z,47.72
2023-04-03T11:18:04.495Z,47.60
2023-04-03T11:25:41.892Z,48.33
2023-04-03T11:33:33.667Z,48.36
2023-04-03T11:41:09.570Z,48.03
2023-04-03T11:48:57.582Z,48.91
2023-04-03T11:56:34.703Z,48.92
2023-04-03T12:04:17.012Z,50.74
2023-04-03T12:11:51.770Z,51.01
2023-04-03T12:19:42.581Z,49.63
2023-04-03T12:27:30.348Z,50.99
2023-04-03T12:35:25.626Z,51.42
2023-04-03T12:43:37.257Z,52.41
2023-04-03T12:51:18.678Z,51.94
2023-04-03T12:58:53.914Z,52.06
2023-04-03T13:14:27.334Z,48.16
2023-04-03T13:22:07.799Z,49.43
2023-04-03T13:29:42.594Z,49.29
2023-04-03T13:37:26.119Z,50.34
2023-04-03T13:45:18.371Z,51.16
2023-04-03T13:53:13.885Z,51.93
2023-04-03T14:00:52.028Z,52.86
2023-04-03T14:08:41.767Z,51.80
2023-04-03T14:16:22.955Z,51.44
2023-04-03T14:23:58.597Z,52.54
2023-04-03T14:31:33.813Z,53.21
2023-04-03T14:39:10.875Z,54.60
2023-04-03T14:46:56.349Z,52.66
2023-04-03T14:54:32.472Z,51.29
2023-04-03T15:02:27.763Z,51.16
2023-04-03T15:10:07.038Z,51.15
2023-04-03T15:17:41.456Z,52.80
2023-04-03T15:25:16.761Z,53.53
2023-04-03T15:32:51.207Z,54.95
2023-04-03T15:40:26.679Z,56.31
2023-04-03T15:48:00.892Z,57.48
2023-04-03T15:55:38.333Z,58.07
2023-04-03T16:03:14.654Z,59.32
2023-04-03T16:10:49.968Z,61.00
2023-04-03T16:18:23.868Z,60.61
2023-04-03T16:25:59.081Z,61.36
2023-04-03T16:33:33.212Z,59.94
2023-04-03T16:41:08.508Z,60.13
2023-04-03T16:48:42.741Z,61.24
2023-04-03T16:56:18.374Z,62.28
2023-04-03T17:03:52.336Z,62.98
2023-04-03T17:11:28.824Z,63.43
2023-04-03T17:19:02.782Z,64.36
2023-04-03T17:26:38.694Z,65.73
2023-04-03T17:34:12.996Z,66.21
2023-04-03T17:41:49.564Z,67.15
2023-04-03T17:49:23.266Z,67.19
2023-04-03T17:56:59.094Z,67.28
2023-04-03T18:04:33.035Z,67.55
2023-04-03T18:12:09.940Z,68.20
2023-04-03T18:19:43.791Z,68.96
2023-04-03T18:35:14.061Z,72.22
2023-04-03T18:42:49.562Z,72.78
2023-04-03T18:50:23.952Z,72.78
2023-04-03T18:57:59.590Z,73.16
2023-04-03T19:05:33.764Z,72.49
2023-04-03T19:13:09.390Z,72.82
2023-04-03T19:20:43.585Z,73.45
2023-04-03T19:28:18.854Z,73.73
2023-04-03T19:35:53.122Z,75.11
2023-04-03T19:43:29.464Z,76.24
2023-04-03T19:51:04.662Z,76.93
2023-04-03T19:58:41.374Z,78.97
2023-04-03T20:06:15.921Z,79.79
2023-04-03T20:13:52.028Z,80.50
2023-04-03T20:21:29.799Z,81.11
2023-04-03T20:29:05.667Z,82.11
2023-04-03T20:36:39.990Z,82.61
2023-04-03T20:44:18.470Z,83.03
2023-04-03T20:51:52.612Z,83.57
2023-04-03T20:59:27.859Z,84.53
2023-04-03T21:07:40.070Z,84.71
2023-04-03T21:15:47.378Z,85.15
2023-04-03T21:23:23.927Z,85.62
2023-04-03T21:30:57.715Z,85.99
2023-04-03T21:38:35.132Z,86.37
2023-04-03T21:46:09.128Z,87.06
2023-04-03T21:53:44.895Z,88.15
2023-04-03T22:01:19.844Z,88.70
2023-04-03T22:08:56.912Z,88.54
2023-04-03T22:16:30.820Z,86.52
2023-04-03T22:24:06.538Z,86.16
2023-04-03T22:31:41.728Z,86.62
2023-04-03T22:39:16.956Z,86.07
2023-04-03T22:46:51.967Z,85.77
2023-04-03T22:54:27.137Z,84.41
2023-04-03T23:02:01.309Z,84.46
2023-04-03T23:09:36.544Z,83.71
2023-04-03T23:17:10.386Z,83.60
2023-04-03T23:24:45.854Z,83.83
2023-04-03T23:32:19.766Z,84.15
2023-04-03T23:39:54.905Z,84.26
2023-04-03T23:47:28.862Z,84.21
2023-04-03T23:55:04.511Z,84.32
